Karachi/Jinnah International Airport

Airport
ICAO code: 
OPKC
IATA Code: 
KHI
Summary
ICAO Region: 
MID
Territory: 
Location: 
Karachi, Sindh
Serving: 
Karachi
Elevation: 
100 ft
Coordinates: 
Aerial View: 
24° 54' 16.752" N, 67° 9' 26.417" E
Metar
Observation
OPKC 170700Z 09010KT 4000 HZ SCT100 23/03 Q1021 NOSIG
Station
Karachi Airport
Date/Time
2022-01-17 07:00:00
Wind direction
90°
Wind speed
10 kts
Lowest cloud amount
scattered clouds
Temperature
23°C
Dew point
3°C
Humidity
27%
QNH
1021 hPa
Weather condition
n/a

International airport serving Karachi, Pakistan.

Climatology

Mild Desert Climate (Köppen climate classification BWh).

Karachi tends to have a relatively mild, arid climate with low average precipitation levels (approximately 250 mm per annum), the bulk of which occurs during the July-August monsoon season. Winters are mild & dry, while the summers are hot & humid; the proximity to the sea maintains humidity levels at a near-constant high and cool sea breezes relieve the heat of the summer months.

Runways

Designator Length Width Surface Rops
07L/25R 3200 46 CON Yes/Yes
07R/25L 3400 46 CON Yes/Yes
Airport map: 
Aerial View: 

SKYbrary Partners:

Safety knowledge contributed by: